Time;durP1;ratioP1;P1;durP2;ratioP2;P2;SDS_P1;SDS_P2;PMS_P1;PMS_P2;Temp;Humidity;BMP_temperature;BMP_pressure;BME280_temperature;BME280_humidity;BME280_pressure;Samples;Min_cycle;Max_cycle;Signal;HPM_P1;HPM_P2
2023/06/11 00:02:06;;;;;;;8.20;6.05;;;;;;;20.99;61.45;94658.84;5031400;28;20059;-81
2023/06/11 00:04:34;;;;;;;9.25;5.90;;;;;;;21.22;61.29;94694.06;5014955;28;20027;-81
2023/06/11 00:07:02;;;;;;;9.60;5.70;;;;;;;21.17;61.84;94694.34;5028806;28;20386;-81
2023/06/11 00:09:28;;;;;;;10.98;5.25;;;;;;;21.03;61.42;94659.72;5053470;28;20035;-81
2023/06/11 00:11:54;;;;;;;11.73;6.22;;;;;;;21.23;61.44;94695.63;5053639;28;20598;-81
2023/06/11 00:14:22;;;;;;;9.85;6.45;;;;;;;20.92;61.53;94649.81;5017325;28;20071;-81
2023/06/11 00:16:48;;;;;;;8.98;6.35;;;;;;;20.89;61.61;94645.94;5033914;28;20033;-81
2023/06/11 00:19:14;;;;;;;11.88;6.50;;;;;;;21.13;61.75;94690.75;5052931;28;20404;-81
2023/06/11 00:21:46;;;;;;;8.45;5.80;;;;;;;21.13;62.05;94696.16;5053326;28;20025;-81
2023/06/11 00:24:14;;;;;;;12.23;6.07;;;;;;;21.11;61.88;94698.41;5052537;28;20484;-81
2023/06/11 00:26:40;;;;;;;9.57;6.10;;;;;;;21.12;62.14;94689.19;5043606;28;20025;-81
2023/06/11 00:29:06;;;;;;;12.48;6.65;;;;;;;21.09;62.11;94690.66;5053070;28;20087;-81
2023/06/11 00:31:32;;;;;;;11.57;6.50;;;;;;;20.70;62.74;94651.25;5044002;28;20061;-81
2023/06/11 00:33:59;;;;;;;14.63;6.72;;;;;;;20.74;62.37;94674.47;5017957;28;20101;-81
2023/06/11 00:36:26;;;;;;;12.00;6.63;;;;;;;20.44;62.54;94624.88;5052660;28;20060;-81
2023/06/11 00:38:53;;;;;;;9.63;6.72;;;;;;;20.43;63.11;94636.78;5033905;28;20490;-81
2023/06/11 00:41:18;;;;;;;11.52;6.50;;;;;;;20.59;62.86;94642.94;5052316;28;20491;-81
2023/06/11 00:43:43;;;;;;;12.18;7.20;;;;;;;20.69;62.70;94647.78;5052695;28;20045;-81
2023/06/11 00:46:10;;;;;;;10.85;6.82;;;;;;;20.61;64.21;94686.47;5034606;28;20079;-81
2023/06/11 00:48:38;;;;;;;10.57;7.35;;;;;;;20.74;63.61;94692.56;5034427;28;20029;-81
2023/06/11 00:51:05;;;;;;;12.07;7.20;;;;;;;20.60;63.43;94662.56;5034546;28;20029;-81
2023/06/11 00:53:30;;;;;;;10.13;6.65;;;;;;;20.69;63.46;94682.81;5034005;28;20036;-81
2023/06/11 00:55:56;;;;;;;12.25;6.57;;;;;;;20.59;63.00;94666.41;5034983;28;20032;-81
2023/06/11 00:58:22;;;;;;;12.38;6.88;;;;;;;20.49;62.78;94635.38;5017443;28;20033;-81
2023/06/11 01:00:52;;;;;;;8.52;5.72;;;;;;;20.59;62.97;94642.16;5021129;28;20029;-81
2023/06/11 01:03:22;;;;;;;13.00;6.28;;;;;;;20.74;63.27;94662.91;5033156;28;20500;-81
2023/06/11 01:06:01;;;;;;;10.55;6.53;;;;;;;20.81;62.87;94681.94;5040292;28;20052;-81
2023/06/11 01:08:26;;;;;;;11.40;6.10;;;;;;;20.44;62.86;94634.88;5034484;28;20479;-81
2023/06/11 01:10:52;;;;;;;10.60;6.32;;;;;;;20.67;62.81;94671.59;5050970;28;20036;-81
2023/06/11 01:13:17;;;;;;;11.45;6.85;;;;;;;20.60;62.87;94671.41;5037906;28;20028;-81
2023/06/11 01:15:43;;;;;;;13.10;7.15;;;;;;;20.70;62.90;94687.06;5055450;28;20021;-81
2023/06/11 01:18:18;;;;;;;12.65;6.75;;;;;;;20.34;63.04;94639.66;5037421;28;20123;-81
2023/06/11 01:20:52;;;;;;;8.40;6.05;;;;;;;20.75;63.20;94710.28;5035413;28;20042;-81
2023/06/11 01:23:31;;;;;;;13.00;6.43;;;;;;;20.69;63.57;94696.28;5046359;28;20393;-81
2023/06/11 01:26:16;;;;;;;13.38;6.80;;;;;;;20.38;63.36;94645.88;5034784;28;20045;-81
2023/06/11 01:28:46;;;;;;;9.95;6.38;;;;;;;20.41;63.73;94655.97;5036969;28;20033;-81
2023/06/11 01:31:15;;;;;;;11.88;6.70;;;;;;;20.54;63.83;94672.03;5055766;28;20029;-81
2023/06/11 01:33:42;;;;;;;8.95;6.38;;;;;;;20.33;63.92;94646.16;5037556;28;20430;-81
2023/06/11 01:36:10;;;;;;;13.13;6.80;;;;;;;20.17;63.87;94623.03;5019143;28;20099;-81
2023/06/11 01:38:42;;;;;;;16.13;6.57;;;;;;;20.49;63.90;94683.09;5044316;28;20043;-81
2023/06/11 01:41:10;;;;;;;12.88;7.28;;;;;;;20.35;64.20;94659.28;5054876;28;20044;-81
2023/06/11 01:43:35;;;;;;;10.05;6.07;;;;;;;20.44;64.07;94681.44;5048901;28;20036;-81
2023/06/11 01:46:03;;;;;;;11.60;5.93;;;;;;;20.43;64.17;94674.50;5036754;28;20566;-81
2023/06/11 01:48:28;;;;;;;11.15;6.78;;;;;;;20.46;64.11;94678.38;5055637;28;20037;-83
2023/06/11 01:50:54;;;;;;;11.43;6.55;;;;;;;19.90;64.20;94592.38;5055513;28;20025;-81
2023/06/11 01:53:19;;;;;;;14.00;6.90;;;;;;;20.16;63.86;94641.09;5036803;28;20029;-82
2023/06/11 01:55:45;;;;;;;9.93;5.93;;;;;;;20.28;63.95;94669.84;5054932;28;20029;-82
2023/06/11 01:58:11;;;;;;;9.93;6.30;;;;;;;20.06;63.73;94638.13;5036947;28;20032;-82
2023/06/11 02:00:37;;;;;;;10.85;6.32;;;;;;;20.46;63.66;94687.25;5036990;28;20033;-82
2023/06/11 02:03:02;;;;;;;12.57;6.22;;;;;;;20.22;63.78;94639.69;5054845;28;20025;-82
2023/06/11 02:05:28;;;;;;;8.68;6.00;;;;;;;20.37;63.78;94665.88;5035943;28;20067;-82
2023/06/11 02:07:53;;;;;;;9.10;6.30;;;;;;;20.52;63.52;94687.78;5036700;28;20519;-82
2023/06/11 02:10:19;;;;;;;12.15;6.22;;;;;;;20.58;63.77;94684.47;5027254;28;20117;-82
2023/06/11 02:12:45;;;;;;;10.35;6.07;;;;;;;20.65;63.60;94706.22;5035322;28;20502;-82
2023/06/11 02:15:12;;;;;;;11.43;6.53;;;;;;;20.49;63.85;94683.88;5054522;28;20098;-82
2023/06/11 02:17:37;;;;;;;9.57;6.25;;;;;;;20.44;63.72;94677.97;5054635;28;20491;-82
2023/06/11 02:20:07;;;;;;;8.32;5.88;;;;;;;20.16;63.82;94635.69;5054570;28;20068;-82
2023/06/11 02:22:34;;;;;;;11.63;5.93;;;;;;;19.99;63.85;94606.41;5036082;28;20099;-82
2023/06/11 02:25:00;;;;;;;8.98;5.50;;;;;;;20.37;63.79;94660.47;5054740;28;20045;-82
2023/06/11 02:27:25;;;;;;;13.05;6.97;;;;;;;20.62;63.71;94706.09;5054093;28;20511;-82
2023/06/11 02:29:51;;;;;;;9.20;6.05;;;;;;;20.24;63.28;94642.03;5036392;28;20036;-82
2023/06/11 02:32:16;;;;;;;18.17;6.05;;;;;;;20.52;63.41;94691.25;5037058;28;20036;-82
2023/06/11 02:34:42;;;;;;;9.68;5.88;;;;;;;19.86;63.08;94578.03;5036899;28;20512;-82
2023/06/11 02:37:09;;;;;;;15.48;6.65;;;;;;;20.48;63.01;94674.22;5035981;28;20144;-82
2023/06/11 02:39:34;;;;;;;17.05;6.10;;;;;;;20.02;63.50;94611.13;5031776;28;20116;-82
2023/06/11 02:42:00;;;;;;;10.63;6.10;;;;;;;20.58;63.54;94681.00;5048728;28;20954;-82
2023/06/11 02:44:25;;;;;;;10.70;6.38;;;;;;;20.42;63.29;94654.84;5048247;28;20025;-82
2023/06/11 02:46:51;;;;;;;13.13;5.18;;;;;;;20.10;62.52;94634.41;5015713;28;20052;-82
2023/06/11 02:49:16;;;;;;;11.27;5.82;;;;;;;20.39;62.18;94695.94;5043651;28;20029;-82
2023/06/11 02:51:42;;;;;;;8.00;5.30;;;;;;;20.01;62.10;94642.63;5053491;28;20033;-82
2023/06/11 02:54:07;;;;;;;8.75;5.30;;;;;;;20.45;61.93;94690.28;5036415;28;20052;-82
2023/06/11 02:56:33;;;;;;;8.45;5.32;;;;;;;20.38;61.92;94693.59;5026762;28;20404;-82
2023/06/11 02:58:58;;;;;;;10.18;5.10;;;;;;;20.18;61.43;94683.81;5053915;28;20571;-82
2023/06/11 03:01:25;;;;;;;5.78;4.78;;;;;;;20.20;61.27;94697.72;5043330;28;20036;-82
2023/06/11 03:03:51;;;;;;;11.75;5.13;;;;;;;20.18;61.26;94708.03;5053488;28;20071;-81
2023/06/11 03:06:16;;;;;;;9.57;5.05;;;;;;;19.83;60.80;94641.41;5017209;28;20057;-81
2023/06/11 03:08:41;;;;;;;7.50;4.45;;;;;;;19.98;61.41;94685.63;5015514;28;20116;-81
2023/06/11 03:11:07;;;;;;;8.18;5.10;;;;;;;20.03;60.97;94680.75;5043945;28;20399;-82
2023/06/11 03:13:32;;;;;;;10.55;4.75;;;;;;;20.18;60.90;94686.50;5036079;28;20040;-81
2023/06/11 03:15:58;;;;;;;9.30;5.45;;;;;;;20.30;60.66;94695.28;5050537;28;20428;-82
2023/06/11 03:18:23;;;;;;;21.17;5.78;;;;;;;20.47;60.80;94712.28;5019311;28;20021;-81
2023/06/11 03:20:49;;;;;;;7.68;4.82;;;;;;;19.88;60.49;94606.16;5053392;28;20040;-81
2023/06/11 03:23:14;;;;;;;10.13;5.15;;;;;;;20.35;60.35;94703.16;5046079;28;20042;-81
2023/06/11 03:25:40;;;;;;;12.05;5.78;;;;;;;19.93;60.98;94648.97;5033167;28;20029;-81
2023/06/11 03:28:06;;;;;;;11.05;5.25;;;;;;;20.51;60.49;94722.03;5034669;28;20033;-82
2023/06/11 03:30:31;;;;;;;12.38;5.43;;;;;;;20.55;60.58;94728.25;5034615;28;20490;-81
2023/06/11 03:32:56;;;;;;;9.30;5.25;;;;;;;20.42;60.22;94703.34;5023045;28;20033;-82
2023/06/11 03:35:22;;;;;;;10.10;4.80;;;;;;;20.38;60.30;94713.22;5015124;28;20455;-82
2023/06/11 03:37:47;;;;;;;7.45;4.80;;;;;;;20.50;59.99;94743.91;5038467;28;20029;-81
2023/06/11 03:40:13;;;;;;;14.95;5.45;;;;;;;20.37;60.01;94702.78;5052758;28;20090;-81
2023/06/11 03:42:39;;;;;;;8.93;5.55;;;;;;;20.48;59.95;94728.09;5035329;28;20121;-82
2023/06/11 03:45:05;;;;;;;10.65;5.78;;;;;;;20.37;60.31;94717.03;5044174;28;20052;-81
2023/06/11 03:47:31;;;;;;;13.48;5.55;;;;;;;20.54;60.25;94742.06;5034569;28;20143;-82
2023/06/11 03:49:57;;;;;;;8.52;5.00;;;;;;;20.46;60.05;94722.25;5052533;28;20037;-81
2023/06/11 03:52:22;;;;;;;9.20;5.78;;;;;;;20.64;59.99;94738.88;5031467;28;20040;-82
2023/06/11 03:54:48;;;;;;;11.60;5.53;;;;;;;20.16;59.76;94659.16;5023698;28;20025;-81
2023/06/11 03:57:13;;;;;;;8.70;5.00;;;;;;;19.97;59.61;94625.63;5041716;28;20033;-82
2023/06/11 03:59:39;;;;;;;11.13;5.82;;;;;;;20.58;59.69;94710.63;5014564;28;20029;-81
2023/06/11 04:02:05;;;;;;;11.98;5.90;;;;;;;20.67;59.56;94722.03;5041312;28;20052;-82
2023/06/11 04:04:32;;;;;;;10.45;5.22;;;;;;;20.80;59.71;94740.44;5034642;28;20041;-82
2023/06/11 04:06:57;;;;;;;12.32;5.25;;;;;;;20.72;59.51;94746.00;5023054;28;20413;-81
2023/06/11 04:09:23;;;;;;;14.60;5.60;;;;;;;20.74;59.38;94732.97;5034847;28;20041;-82
2023/06/11 04:11:48;;;;;;;6.95;5.30;;;;;;;20.35;59.21;94670.84;5041408;28;20029;-81
2023/06/11 04:14:14;;;;;;;12.70;5.28;;;;;;;20.82;58.76;94720.47;5030671;28;20124;-82
2023/06/11 04:16:39;;;;;;;18.15;5.60;;;;;;;20.25;59.36;94657.06;5030695;28;20043;-82
2023/06/11 04:19:05;;;;;;;14.07;5.20;;;;;;;20.65;59.03;94713.50;5034311;28;20083;-82
2023/06/11 04:21:30;;;;;;;10.43;5.13;;;;;;;20.73;59.15;94732.19;5034171;28;20067;-82
2023/06/11 04:23:56;;;;;;;9.07;5.20;;;;;;;20.57;59.03;94707.16;5034822;28;20041;-82
2023/06/11 04:26:23;;;;;;;19.17;5.63;;;;;;;20.63;58.75;94718.44;5049087;28;20064;-82
2023/06/11 04:28:50;;;;;;;7.40;4.63;;;;;;;20.80;58.29;94743.16;5014492;28;20029;-82
2023/06/11 04:31:16;;;;;;;8.75;4.95;;;;;;;20.70;58.06;94724.00;5020040;28;20124;-82
2023/06/11 04:33:41;;;;;;;9.57;5.30;;;;;;;20.76;57.84;94728.78;5052397;28;20059;-82
2023/06/11 04:36:09;;;;;;;12.85;5.22;;;;;;;20.92;57.28;94736.88;5052536;28;20032;-82
2023/06/11 04:38:36;;;;;;;13.15;5.20;;;;;;;20.37;57.22;94644.31;5034837;28;20049;-82
2023/06/11 04:41:02;;;;;;;9.30;4.40;;;;;;;20.66;57.18;94682.75;5051435;28;20071;-82
2023/06/11 04:43:33;;;;;;;12.27;5.32;;;;;;;20.97;56.85;94730.44;5036038;28;20032;-82
2023/06/11 04:46:03;;;;;;;7.30;4.88;;;;;;;20.85;56.78;94704.34;5038831;28;20071;-82
2023/06/11 04:48:31;;;;;;;9.45;4.60;;;;;;;20.60;56.69;94655.25;5029789;28;20037;-81
2023/06/11 04:51:01;;;;;;;9.30;4.88;;;;;;;21.06;56.91;94726.41;5021265;28;20635;-82
2023/06/11 04:53:29;;;;;;;9.68;4.68;;;;;;;20.88;56.71;94716.34;5046652;28;20507;-82
2023/06/11 04:55:56;;;;;;;9.73;4.82;;;;;;;21.00;56.88;94718.94;5031004;28;20029;-82
2023/06/11 04:58:25;;;;;;;10.18;5.18;;;;;;;20.93;57.06;94700.69;5039253;28;20124;-82
2023/06/11 05:00:52;;;;;;;6.32;4.07;;;;;;;21.22;56.50;94725.63;5032017;28;20033;-82
2023/06/11 05:03:18;;;;;;;9.13;4.60;;;;;;;21.03;56.36;94685.91;5052026;28;20029;-82
2023/06/11 05:05:51;;;;;;;8.43;4.80;;;;;;;21.10;55.86;94719.19;5037413;28;20064;-82
2023/06/11 05:08:24;;;;;;;9.73;4.70;;;;;;;20.97;55.93;94690.78;5055543;28;20048;-82
2023/06/11 05:10:52;;;;;;;10.02;4.82;;;;;;;21.03;55.48;94694.78;5037510;28;20032;-82
2023/06/11 05:13:22;;;;;;;6.40;4.03;;;;;;;20.86;55.34;94672.78;5055123;28;20853;-82
2023/06/11 05:15:48;;;;;;;10.73;5.22;;;;;;;21.22;55.29;94714.84;5037015;28;20389;-82
2023/06/11 05:18:13;;;;;;;11.02;4.80;;;;;;;21.28;55.19;94735.81;5037286;28;20516;-82
2023/06/11 05:20:39;;;;;;;21.50;6.38;;;;;;;21.14;55.25;94730.84;5047239;28;20108;-82
2023/06/11 05:23:04;;;;;;;13.63;5.05;;;;;;;20.72;55.36;94663.25;5044357;28;20503;-82
2023/06/11 05:25:31;;;;;;;8.48;4.40;;;;;;;20.44;55.46;94597.16;5037550;28;20029;-82
2023/06/11 05:27:59;;;;;;;8.55;4.80;;;;;;;20.94;55.93;94704.16;5031263;28;20441;-82
2023/06/11 05:30:25;;;;;;;6.55;4.78;;;;;;;21.25;55.66;94736.50;5017574;28;20021;-82
2023/06/11 05:32:55;;;;;;;10.82;5.93;;;;;;;21.23;55.47;94727.97;5025613;28;20029;-82
2023/06/11 05:35:20;;;;;;;10.57;4.90;;;;;;;21.10;55.40;94710.31;5037328;28;20469;-82
2023/06/11 05:37:46;;;;;;;6.00;4.55;;;;;;;21.18;55.66;94747.13;5055125;28;20045;-81
2023/06/11 05:40:13;;;;;;;9.23;5.03;;;;;;;21.13;55.32;94728.50;5036583;28;20037;-82
2023/06/11 05:42:39;;;;;;;7.88;5.38;;;;;;;21.12;54.76;94716.16;5033531;28;20079;-82
2023/06/11 05:45:06;;;;;;;10.82;4.15;;;;;;;21.31;54.75;94737.00;5032044;28;20487;-82
2023/06/11 05:47:32;;;;;;;8.20;4.70;;;;;;;21.27;54.69;94739.66;5038655;28;20037;-82
2023/06/11 05:49:58;;;;;;;10.88;4.40;;;;;;;21.17;55.07;94750.97;5017461;28;20120;-81
2023/06/11 05:52:24;;;;;;;8.90;4.53;;;;;;;21.26;54.92;94754.25;5019438;28;20025;-82
2023/06/11 05:54:50;;;;;;;11.32;4.65;;;;;;;21.40;54.30;94745.69;5026413;28;20439;-82
2023/06/11 05:57:23;;;;;;;10.65;4.70;;;;;;;21.65;53.81;94747.03;5054816;28;20129;-82
2023/06/11 05:59:49;;;;;;;9.95;5.07;;;;;;;21.17;54.82;94724.00;5054389;28;20045;-82
2023/06/11 06:02:15;;;;;;;11.60;5.18;;;;;;;21.48;54.86;94755.50;5055201;28;20407;-82
2023/06/11 06:04:40;;;;;;;11.85;4.72;;;;;;;21.50;55.30;94743.25;5054629;28;20032;-82
2023/06/11 06:07:06;;;;;;;9.23;4.60;;;;;;;21.58;55.56;94748.78;5036895;28;20043;-82
2023/06/11 06:09:33;;;;;;;8.50;4.93;;;;;;;21.36;55.75;94742.16;5054479;28;20067;-82
2023/06/11 06:11:59;;;;;;;6.72;4.53;;;;;;;21.35;54.93;94725.19;5037054;28;20025;-81
2023/06/11 06:14:24;;;;;;;13.05;5.65;;;;;;;21.39;55.35;94739.50;5036768;28;20029;-82
2023/06/11 06:16:50;;;;;;;11.05;5.78;;;;;;;21.12;55.55;94700.75;5032406;28;20100;-82
2023/06/11 06:19:15;;;;;;;11.35;5.57;;;;;;;21.12;55.43;94691.91;5021576;28;20043;-82
2023/06/11 06:21:41;;;;;;;8.07;5.20;;;;;;;21.73;54.45;94745.25;5054083;28;20459;-82
2023/06/11 06:24:06;;;;;;;7.05;4.93;;;;;;;21.45;54.89;94723.81;5021431;28;20440;-82
2023/06/11 06:26:32;;;;;;;6.50;4.68;;;;;;;21.42;54.86;94703.75;5016144;28;20029;-82
2023/06/11 06:28:57;;;;;;;12.65;5.63;;;;;;;21.86;54.73;94754.78;5039728;28;20052;-83
2023/06/11 06:31:24;;;;;;;11.95;5.65;;;;;;;21.94;54.43;94751.06;5016411;28;20089;-82
2023/06/11 06:33:50;;;;;;;8.20;5.60;;;;;;;21.95;54.49;94758.81;5016042;28;20018;-82
2023/06/11 06:36:16;;;;;;;13.00;5.30;;;;;;;21.17;54.11;94616.91;5028528;28;20384;-82
2023/06/11 06:38:42;;;;;;;9.00;5.10;;;;;;;22.04;54.01;94726.25;5053797;28;20036;-82
2023/06/11 06:41:08;;;;;;;13.50;5.10;;;;;;;21.76;53.65;94663.56;5053965;28;20439;-82
2023/06/11 06:43:34;;;;;;;10.38;6.18;;;;;;;21.28;53.37;94578.63;5035923;28;20025;-82
2023/06/11 06:46:00;;;;;;;18.65;6.45;;;;;;;22.17;53.08;94689.06;5034999;28;20032;-82
2023/06/11 06:48:25;;;;;;;10.80;5.25;;;;;;;22.08;52.61;94648.78;5020225;28;20108;-82
2023/06/11 06:50:51;;;;;;;15.73;5.65;;;;;;;21.87;52.48;94605.16;5051068;28;20095;-83
2023/06/11 06:53:16;;;;;;;10.57;5.53;;;;;;;22.97;51.74;94747.56;5020000;28;20417;-82
2023/06/11 06:55:44;;;;;;;7.50;5.60;;;;;;;22.94;52.20;94746.41;5035419;28;20029;-82
2023/06/11 06:58:10;;;;;;;18.48;5.78;;;;;;;22.64;52.55;94713.81;5036250;28;20435;-82
2023/06/11 07:00:35;;;;;;;12.15;5.60;;;;;;;22.86;52.46;94725.78;5035675;28;20088;-82
2023/06/11 07:03:01;;;;;;;7.97;5.65;;;;;;;22.41;52.28;94637.38;5052579;28;20052;-82
2023/06/11 07:05:27;;;;;;;8.60;5.78;;;;;;;22.89;51.59;94686.41;5052481;28;20045;-82
2023/06/11 07:07:53;;;;;;;12.77;5.35;;;;;;;22.98;51.25;94687.72;5034877;28;20028;-82
2023/06/11 07:10:19;;;;;;;12.50;6.25;;;;;;;23.44;50.90;94742.50;5053736;28;20025;-82
2023/06/11 07:12:44;;;;;;;9.55;5.80;;;;;;;23.38;50.92;94724.25;5019101;28;20514;-82
2023/06/11 07:15:10;;;;;;;8.88;5.53;;;;;;;23.45;50.39;94721.63;5054070;28;20037;-82
2023/06/11 07:17:35;;;;;;;11.85;6.50;;;;;;;23.35;50.48;94697.91;5052966;28;20039;-82
2023/06/11 07:20:01;;;;;;;11.10;5.53;;;;;;;23.67;50.57;94738.97;5035623;28;20029;-82
2023/06/11 07:22:26;;;;;;;15.50;6.32;;;;;;;23.51;50.70;94703.97;5036048;28;20387;-82
2023/06/11 07:24:52;;;;;;;13.55;6.03;;;;;;;23.71;50.65;94735.19;5035447;28;20557;-82
2023/06/11 07:27:17;;;;;;;13.07;6.25;;;;;;;23.79;50.67;94736.03;5035604;28;20071;-82
2023/06/11 07:29:43;;;;;;;13.35;6.50;;;;;;;23.54;50.16;94678.88;5035371;28;20116;-83
2023/06/11 07:32:09;;;;;;;8.43;5.82;;;;;;;23.76;49.43;94699.66;5035408;28;20078;-83
2023/06/11 07:34:34;;;;;;;10.25;6.07;;;;;;;23.09;50.38;94685.97;5035502;28;20056;-82
2023/06/11 07:37:00;;;;;;;10.27;5.72;;;;;;;23.34;50.42;94697.16;5050076;28;20520;-82
2023/06/11 07:39:26;;;;;;;13.23;6.40;;;;;;;23.61;50.83;94714.16;5020872;28;20021;-82
2023/06/11 07:41:52;;;;;;;10.18;5.80;;;;;;;23.42;50.58;94658.19;5034186;28;20506;-82
2023/06/11 07:44:17;;;;;;;7.78;5.38;;;;;;;23.83;50.60;94726.03;5053532;28;20112;-83
2023/06/11 07:46:44;;;;;;;13.52;5.80;;;;;;;23.83;50.26;94707.84;5044849;28;20025;-82
2023/06/11 07:49:10;;;;;;;7.80;5.60;;;;;;;23.50;50.40;94704.34;5024839;28;20029;-82
2023/06/11 07:51:36;;;;;;;11.40;6.50;;;;;;;23.37;50.83;94714.56;5042345;28;20447;-82
2023/06/11 07:54:02;;;;;;;8.75;6.05;;;;;;;22.96;51.64;94687.31;5015000;28;20040;-82
2023/06/11 07:56:28;;;;;;;12.85;6.22;;;;;;;22.92;52.16;94710.03;5029574;28;20406;-82
2023/06/11 07:58:54;;;;;;;12.30;6.20;;;;;;;22.71;52.21;94688.81;5034931;28;20033;-82
2023/06/11 08:01:20;;;;;;;13.05;5.35;;;;;;;23.08;52.33;94711.44;5048994;28;20108;-82
2023/06/11 08:03:45;;;;;;;11.32;5.70;;;;;;;23.17;52.34;94694.97;5034451;28;20057;-82
2023/06/11 08:06:11;;;;;;;12.05;6.03;;;;;;;23.41;51.41;94708.06;5033771;28;20055;-82
2023/06/11 08:08:36;;;;;;;11.05;5.75;;;;;;;23.31;52.10;94659.22;5036778;28;20100;-82
2023/06/11 08:11:02;;;;;;;17.63;5.85;;;;;;;23.47;51.87;94682.25;5034731;28;20061;-82
2023/06/11 08:13:27;;;;;;;9.15;5.82;;;;;;;23.79;50.28;94708.97;5052633;28;20090;-82
2023/06/11 08:15:53;;;;;;;8.23;5.55;;;;;;;23.57;50.04;94644.88;5035010;28;20037;-82
2023/06/11 08:18:18;;;;;;;13.55;5.50;;;;;;;23.84;50.56;94665.31;5052331;28;20033;-82
2023/06/11 08:20:44;;;;;;;10.55;6.03;;;;;;;24.14;50.14;94693.13;5034687;28;20044;-82
2023/06/11 08:23:10;;;;;;;9.73;5.38;;;;;;;24.16;48.75;94688.13;5041551;28;20044;-82
2023/06/11 08:25:36;;;;;;;10.15;5.88;;;;;;;24.26;49.37;94700.22;5027523;28;20040;-82
2023/06/11 08:28:02;;;;;;;18.20;5.57;;;;;;;24.13;48.50;94669.09;5022813;28;20034;-82
2023/06/11 08:30:27;;;;;;;10.20;6.10;;;;;;;24.14;48.12;94649.00;5046528;28;20380;-82
2023/06/11 08:32:53;;;;;;;12.30;6.07;;;;;;;24.36;48.09;94674.38;5052117;28;20039;-82
2023/06/11 08:35:20;;;;;;;9.73;5.95;;;;;;;24.09;47.52;94655.53;5034696;28;20036;-82
2023/06/11 08:37:46;;;;;;;14.00;5.93;;;;;;;24.46;46.79;94708.94;5052607;28;20036;-83
2023/06/11 08:40:12;;;;;;;10.10;4.88;;;;;;;24.42;45.30;94691.84;5015481;28;20071;-83
2023/06/11 08:42:38;;;;;;;14.52;6.13;;;;;;;24.41;46.13;94693.78;5033946;28;20041;-83
2023/06/11 08:45:04;;;;;;;7.85;5.28;;;;;;;24.28;46.40;94657.28;5049262;28;20033;-82
2023/06/11 08:47:33;;;;;;;10.18;5.53;;;;;;;24.53;47.60;94698.19;5018190;28;20040;-82
2023/06/11 08:50:00;;;;;;;13.25;5.57;;;;;;;24.49;46.23;94705.47;5052256;28;20036;-82
2023/06/11 08:52:30;;;;;;;16.20;5.57;;;;;;;24.59;47.46;94702.09;5034561;28;20033;-83
2023/06/11 08:54:55;;;;;;;10.90;5.10;;;;;;;24.63;47.04;94705.63;5026961;28;20041;-82
2023/06/11 08:57:21;;;;;;;13.13;5.22;;;;;;;24.41;45.54;94641.53;5024448;28;20092;-82
2023/06/11 08:59:47;;;;;;;8.25;5.30;;;;;;;24.48;47.48;94685.75;5033752;28;20033;-83
2023/06/11 09:02:12;;;;;;;5.80;4.63;;;;;;;24.69;47.48;94690.56;5033103;28;20029;-82
2023/06/11 09:04:43;;;;;;;12.00;6.07;;;;;;;24.76;46.33;94690.63;5052441;28;20025;-82
2023/06/11 09:07:09;;;;;;;8.13;5.25;;;;;;;24.61;46.40;94648.28;5034150;28;20412;-82
2023/06/11 09:09:34;;;;;;;8.35;5.28;;;;;;;24.87;46.15;94693.44;5034038;28;20113;-83
2023/06/11 09:12:05;;;;;;;15.15;5.53;;;;;;;25.02;45.30;94681.56;5034514;28;20427;-82
2023/06/11 09:14:31;;;;;;;12.02;5.70;;;;;;;24.48;45.29;94581.97;5016270;28;20038;-83
2023/06/11 09:16:56;;;;;;;12.52;5.40;;;;;;;24.70;46.04;94631.69;5015856;28;20030;-82
2023/06/11 09:19:22;;;;;;;13.02;5.35;;;;;;;24.94;45.33;94652.84;5051039;28;20056;-82
2023/06/11 09:21:53;;;;;;;9.50;4.93;;;;;;;25.09;43.79;94687.03;5035731;28;20037;-83
2023/06/11 09:24:20;;;;;;;11.50;5.80;;;;;;;24.58;43.36;94586.69;5047115;28;20472;-82
2023/06/11 09:26:52;;;;;;;9.70;5.20;;;;;;;24.78;43.26;94598.84;5039105;28;20028;-83
2023/06/11 09:29:17;;;;;;;7.85;4.38;;;;;;;25.16;45.19;94662.66;5035502;28;20103;-83
2023/06/11 09:31:42;;;;;;;9.65;5.32;;;;;;;25.25;45.42;94662.34;5027026;28;20439;-82
2023/06/11 09:34:12;;;;;;;11.73;5.00;;;;;;;25.20;44.50;94663.44;5029930;28;20060;-83
2023/06/11 09:36:37;;;;;;;14.63;4.93;;;;;;;25.24;43.72;94666.19;5041950;28;20057;-82
2023/06/11 09:39:03;;;;;;;7.45;5.00;;;;;;;25.16;42.00;94619.25;5050584;28;20072;-82
2023/06/11 09:41:29;;;;;;;6.68;4.97;;;;;;;25.21;43.31;94623.53;5037406;28;20086;-83
2023/06/11 09:43:56;;;;;;;12.82;6.32;;;;;;;26.01;42.84;94678.59;5037106;28;20033;-82
2023/06/11 09:46:23;;;;;;;9.20;5.90;;;;;;;26.76;40.17;94655.06;5037286;28;20543;-82
2023/06/11 09:48:50;;;;;;;11.88;8.18;;;;;;;27.78;39.12;94650.59;5054842;28;20021;-83
2023/06/11 09:51:21;;;;;;;12.55;5.80;;;;;;;28.71;36.74;94627.84;5035642;28;20087;-83
2023/06/11 09:53:50;;;;;;;15.88;8.52;;;;;;;29.71;35.04;94630.41;5018592;28;20226;-82
2023/06/11 09:56:17;;;;;;;8.80;5.63;;;;;;;30.40;33.54;94625.59;5035839;28;20495;-83
2023/06/11 09:58:46;;;;;;;11.02;5.70;;;;;;;31.37;31.72;94659.22;5026853;28;20024;-82
2023/06/11 10:01:12;;;;;;;10.88;5.10;;;;;;;31.56;30.86;94591.94;5028600;28;20037;-82
2023/06/11 10:03:37;;;;;;;8.07;4.80;;;;;;;32.10;28.85;94617.88;5035345;28;20373;-82
2023/06/11 10:06:07;;;;;;;8.23;4.60;;;;;;;32.74;27.84;94648.59;5029922;28;20052;-82
2023/06/11 10:08:35;;;;;;;9.13;4.07;;;;;;;33.04;28.86;94631.00;5022509;28;20083;-82
2023/06/11 10:11:03;;;;;;;10.48;3.92;;;;;;;33.25;28.42;94611.28;5050718;28;20055;-83
2023/06/11 10:13:35;;;;;;;6.28;4.32;;;;;;;33.75;28.42;94665.69;5037010;28;20038;-82
2023/06/11 10:16:03;;;;;;;7.65;4.32;;;;;;;33.95;27.43;94643.53;5053817;28;20033;-82
2023/06/11 10:18:30;;;;;;;11.13;5.13;;;;;;;34.38;26.39;94646.59;5054463;28;20044;-83
2023/06/11 10:20:59;;;;;;;10.75;5.22;;;;;;;34.17;25.95;94594.16;5054555;28;20391;-83
2023/06/11 10:23:39;;;;;;;8.50;4.40;;;;;;;34.74;26.46;94640.78;5035971;28;20096;-83
2023/06/11 10:26:05;;;;;;;12.15;5.30;;;;;;;34.60;26.82;94643.19;5036383;28;20033;-83
2023/06/11 10:28:40;;;;;;;6.60;4.60;;;;;;;34.61;25.56;94630.97;5028207;28;20103;-83
2023/06/11 10:31:06;;;;;;;7.25;4.90;;;;;;;34.66;25.02;94627.66;5018148;28;20577;-83
2023/06/11 10:33:36;;;;;;;8.57;4.82;;;;;;;34.89;25.57;94627.31;5034579;28;20037;-82
2023/06/11 10:36:02;;;;;;;11.82;4.75;;;;;;;34.82;24.27;94622.81;5034681;28;20029;-83
2023/06/11 10:38:29;;;;;;;10.40;4.72;;;;;;;34.78;24.57;94600.13;5032659;28;20037;-83
2023/06/11 10:41:03;;;;;;;9.85;5.18;;;;;;;34.69;25.12;94621.25;5035073;28;20045;-83
2023/06/11 10:43:31;;;;;;;9.88;6.65;;;;;;;34.73;25.18;94594.41;5017897;28;20036;-83
2023/06/11 10:46:06;;;;;;;8.82;5.40;;;;;;;34.74;25.29;94573.91;5055153;28;20229;-83
2023/06/11 10:48:32;;;;;;;7.25;4.50;;;;;;;35.00;25.72;94625.00;5050034;28;20512;-83
2023/06/11 10:51:02;;;;;;;7.28;4.63;;;;;;;35.18;26.22;94610.59;5025365;28;20021;-83
2023/06/11 10:53:39;;;;;;;9.23;4.77;;;;;;;35.02;25.96;94621.81;5054143;28;20044;-83
2023/06/11 10:56:06;;;;;;;10.00;4.78;;;;;;;35.04;25.91;94605.56;5054994;28;20362;-83
2023/06/11 10:58:33;;;;;;;10.73;4.55;;;;;;;34.94;25.61;94579.91;5054461;28;20102;-82
2023/06/11 11:00:58;;;;;;;7.53;4.85;;;;;;;35.06;24.90;94600.41;5054411;28;20032;-83
2023/06/11 11:03:26;;;;;;;7.40;5.03;;;;;;;35.13;24.05;94584.38;5036692;28;20455;-83
2023/06/11 11:05:53;;;;;;;8.68;5.05;;;;;;;34.94;24.20;94552.38;5034956;28;20080;-82
2023/06/11 11:08:20;;;;;;;6.63;4.95;;;;;;;34.64;24.83;94558.47;5036062;28;20025;-83
2023/06/11 11:10:46;;;;;;;8.93;4.93;;;;;;;35.26;25.20;94600.91;5055045;28;20024;-83
2023/06/11 11:13:11;;;;;;;6.30;4.45;;;;;;;34.86;24.96;94544.81;5030851;28;20037;-83
2023/06/11 11:15:40;;;;;;;8.60;4.60;;;;;;;35.11;24.80;94586.81;5053060;28;20025;-83
2023/06/11 11:18:07;;;;;;;5.78;4.15;;;;;;;34.92;24.74;94548.53;5035645;28;20522;-83
2023/06/11 11:20:33;;;;;;;11.48;4.63;;;;;;;35.19;24.74;94585.34;5053247;28;20029;-82
2023/06/11 11:22:59;;;;;;;7.60;4.20;;;;;;;34.85;25.72;94593.63;5035534;28;20029;-83
2023/06/11 11:25:29;;;;;;;10.05;3.88;;;;;;;34.34;27.12;94601.88;5053296;28;20488;-83
2023/06/11 11:27:55;;;;;;;;;;;;;;;34.02;27.84;94624.84;5045472;28;20033;-82